sensor_id;sensor_type;location;lat;lon;timestamp;P1;durP1;ratioP1;P2;durP2;ratioP2
1999;SDS011;1001;48.87406500;9.59633600;2023-05-10T00:01:51;1.23;;;0.80;;
1999;SDS011;1001;48.87406500;9.59633600;2023-05-10T00:04:17;1.27;;;0.60;;
1999;SDS011;1001;48.87406500;9.59633600;2023-05-10T00:06:43;2.07;;;0.93;;
1999;SDS011;1001;48.87406500;9.59633600;2023-05-10T00:09:10;4.40;;;1.13;;
1999;SDS011;1001;48.87406500;9.59633600;2023-05-10T00:11:36;1.23;;;0.90;;
1999;SDS011;1001;48.87406500;9.59633600;2023-05-10T00:14:03;1.60;;;0.97;;
1999;SDS011;1001;48.87406500;9.59633600;2023-05-10T00:16:31;1.40;;;1.00;;
1999;SDS011;1001;48.87406500;9.59633600;2023-05-10T00:18:57;1.50;;;1.17;;
1999;SDS011;1001;48.87406500;9.59633600;2023-05-10T00:21:23;1.90;;;1.40;;
1999;SDS011;1001;48.87406500;9.59633600;2023-05-10T00:23:50;5.53;;;1.90;;
1999;SDS011;1001;48.87406500;9.59633600;2023-05-10T00:26:16;2.07;;;1.87;;
1999;SDS011;1001;48.87406500;9.59633600;2023-05-10T00:28:42;3.80;;;2.07;;
1999;SDS011;1001;48.87406500;9.59633600;2023-05-10T00:31:09;17.23;;;4.43;;
1999;SDS011;1001;48.87406500;9.59633600;2023-05-10T00:33:36;21.10;;;3.17;;
1999;SDS011;1001;48.87406500;9.59633600;2023-05-10T00:36:03;38.57;;;6.17;;
1999;SDS011;1001;48.87406500;9.59633600;2023-05-10T00:38:32;13.93;;;3.50;;
1999;SDS011;1001;48.87406500;9.59633600;2023-05-10T00:40:59;1.60;;;1.17;;
1999;SDS011;1001;48.87406500;9.59633600;2023-05-10T00:43:25;1.07;;;0.60;;
1999;SDS011;1001;48.87406500;9.59633600;2023-05-10T00:45:52;2.57;;;0.67;;
1999;SDS011;1001;48.87406500;9.59633600;2023-05-10T00:48:18;2.57;;;1.50;;
1999;SDS011;1001;48.87406500;9.59633600;2023-05-10T00:50:46;1.67;;;1.10;;
1999;SDS011;1001;48.87406500;9.59633600;2023-05-10T00:53:13;0.80;;;0.80;;
1999;SDS011;1001;48.87406500;9.59633600;2023-05-10T00:55:40;3.57;;;0.67;;
1999;SDS011;1001;48.87406500;9.59633600;2023-05-10T00:58:06;0.93;;;0.80;;
1999;SDS011;1001;48.87406500;9.59633600;2023-05-10T01:00:33;1.10;;;1.00;;
1999;SDS011;1001;48.87406500;9.59633600;2023-05-10T01:02:59;0.83;;;0.70;;
1999;SDS011;1001;48.87406500;9.59633600;2023-05-10T01:05:26;1.07;;;0.80;;
1999;SDS011;1001;48.87406500;9.59633600;2023-05-10T01:07:54;1.50;;;1.03;;
1999;SDS011;1001;48.87406500;9.59633600;2023-05-10T01:10:20;2.07;;;1.00;;
1999;SDS011;1001;48.87406500;9.59633600;2023-05-10T01:12:47;1.60;;;1.50;;
1999;SDS011;1001;48.87406500;9.59633600;2023-05-10T01:15:13;1.30;;;1.20;;
1999;SDS011;1001;48.87406500;9.59633600;2023-05-10T01:17:41;3.47;;;1.50;;
1999;SDS011;1001;48.87406500;9.59633600;2023-05-10T01:20:08;1.50;;;1.40;;
1999;SDS011;1001;48.87406500;9.59633600;2023-05-10T01:22:41;4.00;;;2.07;;
1999;SDS011;1001;48.87406500;9.59633600;2023-05-10T01:25:19;2.13;;;1.93;;
1999;SDS011;1001;48.87406500;9.59633600;2023-05-10T01:33:17;5.03;;;2.40;;
1999;SDS011;1001;48.87406500;9.59633600;2023-05-10T01:35:46;2.20;;;2.00;;
1999;SDS011;1001;48.87406500;9.59633600;2023-05-10T01:38:16;5.40;;;2.90;;
1999;SDS011;1001;48.87406500;9.59633600;2023-05-10T01:40:48;3.23;;;2.40;;
1999;SDS011;1001;48.87406500;9.59633600;2023-05-10T01:43:19;21.50;;;3.83;;
1999;SDS011;1001;48.87406500;9.59633600;2023-05-10T01:45:50;3.30;;;2.40;;
1999;SDS011;1001;48.87406500;9.59633600;2023-05-10T01:48:22;2.90;;;2.60;;
1999;SDS011;1001;48.87406500;9.59633600;2023-05-10T01:50:49;3.47;;;3.17;;
1999;SDS011;1001;48.87406500;9.59633600;2023-05-10T01:53:17;3.10;;;2.80;;
1999;SDS011;1001;48.87406500;9.59633600;2023-05-10T01:55:46;4.80;;;3.47;;
1999;SDS011;1001;48.87406500;9.59633600;2023-05-10T01:58:13;6.03;;;4.23;;
1999;SDS011;1001;48.87406500;9.59633600;2023-05-10T02:00:40;4.10;;;3.73;;
1999;SDS011;1001;48.87406500;9.59633600;2023-05-10T02:03:08;3.93;;;3.57;;
1999;SDS011;1001;48.87406500;9.59633600;2023-05-10T02:05:36;3.83;;;3.37;;
1999;SDS011;1001;48.87406500;9.59633600;2023-05-10T02:08:05;4.80;;;3.37;;
1999;SDS011;1001;48.87406500;9.59633600;2023-05-10T02:10:32;4.17;;;3.30;;
1999;SDS011;1001;48.87406500;9.59633600;2023-05-10T02:12:58;3.97;;;3.57;;
1999;SDS011;1001;48.87406500;9.59633600;2023-05-10T02:15:25;3.87;;;3.47;;
1999;SDS011;1001;48.87406500;9.59633600;2023-05-10T02:17:53;3.70;;;3.40;;
1999;SDS011;1001;48.87406500;9.59633600;2023-05-10T02:20:20;6.63;;;3.80;;
1999;SDS011;1001;48.87406500;9.59633600;2023-05-10T02:22:50;3.77;;;3.40;;
1999;SDS011;1001;48.87406500;9.59633600;2023-05-10T02:25:17;8.23;;;4.20;;
1999;SDS011;1001;48.87406500;9.59633600;2023-05-10T02:27:45;4.20;;;3.60;;
1999;SDS011;1001;48.87406500;9.59633600;2023-05-10T02:30:12;4.60;;;3.90;;
1999;SDS011;1001;48.87406500;9.59633600;2023-05-10T02:32:39;5.03;;;3.73;;
1999;SDS011;1001;48.87406500;9.59633600;2023-05-10T02:35:07;5.13;;;3.80;;
1999;SDS011;1001;48.87406500;9.59633600;2023-05-10T02:37:34;4.63;;;3.87;;
1999;SDS011;1001;48.87406500;9.59633600;2023-05-10T02:40:03;5.47;;;4.57;;
1999;SDS011;1001;48.87406500;9.59633600;2023-05-10T02:42:32;5.13;;;4.63;;
1999;SDS011;1001;48.87406500;9.59633600;2023-05-10T02:45:00;5.17;;;4.40;;
1999;SDS011;1001;48.87406500;9.59633600;2023-05-10T02:47:26;5.37;;;4.00;;
1999;SDS011;1001;48.87406500;9.59633600;2023-05-10T02:49:53;4.60;;;4.03;;
1999;SDS011;1001;48.87406500;9.59633600;2023-05-10T02:52:21;4.83;;;3.70;;
1999;SDS011;1001;48.87406500;9.59633600;2023-05-10T02:54:49;4.70;;;4.10;;
1999;SDS011;1001;48.87406500;9.59633600;2023-05-10T02:57:17;4.97;;;4.47;;
1999;SDS011;1001;48.87406500;9.59633600;2023-05-10T02:59:48;4.83;;;3.83;;
1999;SDS011;1001;48.87406500;9.59633600;2023-05-10T03:02:14;5.40;;;4.90;;
1999;SDS011;1001;48.87406500;9.59633600;2023-05-10T03:04:41;5.30;;;4.33;;
1999;SDS011;1001;48.87406500;9.59633600;2023-05-10T03:07:07;4.53;;;4.00;;
1999;SDS011;1001;48.87406500;9.59633600;2023-05-10T03:09:34;4.90;;;4.40;;
1999;SDS011;1001;48.87406500;9.59633600;2023-05-10T03:12:01;4.80;;;4.40;;
1999;SDS011;1001;48.87406500;9.59633600;2023-05-10T03:14:34;4.40;;;4.00;;
1999;SDS011;1001;48.87406500;9.59633600;2023-05-10T03:17:04;6.50;;;4.67;;
1999;SDS011;1001;48.87406500;9.59633600;2023-05-10T03:19:32;6.50;;;4.60;;
1999;SDS011;1001;48.87406500;9.59633600;2023-05-10T03:22:08;5.93;;;4.60;;
1999;SDS011;1001;48.87406500;9.59633600;2023-05-10T03:24:36;5.77;;;5.03;;
1999;SDS011;1001;48.87406500;9.59633600;2023-05-10T03:27:03;5.93;;;4.90;;
1999;SDS011;1001;48.87406500;9.59633600;2023-05-10T03:29:29;5.97;;;4.97;;
1999;SDS011;1001;48.87406500;9.59633600;2023-05-10T03:31:58;7.33;;;5.10;;
1999;SDS011;1001;48.87406500;9.59633600;2023-05-10T03:34:25;6.50;;;5.20;;
1999;SDS011;1001;48.87406500;9.59633600;2023-05-10T03:36:52;8.67;;;5.73;;
1999;SDS011;1001;48.87406500;9.59633600;2023-05-10T03:39:18;8.03;;;5.27;;
1999;SDS011;1001;48.87406500;9.59633600;2023-05-10T03:41:46;7.30;;;5.47;;
1999;SDS011;1001;48.87406500;9.59633600;2023-05-10T03:44:12;7.50;;;5.60;;
1999;SDS011;1001;48.87406500;9.59633600;2023-05-10T03:46:39;7.60;;;5.30;;
1999;SDS011;1001;48.87406500;9.59633600;2023-05-10T03:49:06;6.40;;;5.77;;
1999;SDS011;1001;48.87406500;9.59633600;2023-05-10T03:51:33;5.57;;;5.07;;
1999;SDS011;1001;48.87406500;9.59633600;2023-05-10T03:53:59;7.40;;;5.67;;
1999;SDS011;1001;48.87406500;9.59633600;2023-05-10T03:56:25;9.33;;;5.90;;
1999;SDS011;1001;48.87406500;9.59633600;2023-05-10T03:58:52;6.90;;;5.77;;
1999;SDS011;1001;48.87406500;9.59633600;2023-05-10T04:01:18;6.33;;;5.40;;
1999;SDS011;1001;48.87406500;9.59633600;2023-05-10T04:03:44;9.60;;;5.80;;
1999;SDS011;1001;48.87406500;9.59633600;2023-05-10T04:06:12;6.40;;;5.67;;
1999;SDS011;1001;48.87406500;9.59633600;2023-05-10T04:08:39;7.13;;;5.67;;
1999;SDS011;1001;48.87406500;9.59633600;2023-05-10T04:11:05;8.00;;;6.83;;
1999;SDS011;1001;48.87406500;9.59633600;2023-05-10T04:13:32;7.47;;;5.93;;
1999;SDS011;1001;48.87406500;9.59633600;2023-05-10T04:15:59;6.27;;;5.30;;
1999;SDS011;1001;48.87406500;9.59633600;2023-05-10T04:18:25;8.00;;;5.63;;
1999;SDS011;1001;48.87406500;9.59633600;2023-05-10T04:20:51;7.13;;;6.20;;
1999;SDS011;1001;48.87406500;9.59633600;2023-05-10T04:23:19;7.80;;;6.63;;
1999;SDS011;1001;48.87406500;9.59633600;2023-05-10T04:25:45;8.47;;;6.73;;
1999;SDS011;1001;48.87406500;9.59633600;2023-05-10T04:28:12;11.80;;;7.47;;
1999;SDS011;1001;48.87406500;9.59633600;2023-05-10T04:30:38;7.00;;;6.20;;
1999;SDS011;1001;48.87406500;9.59633600;2023-05-10T04:33:05;7.87;;;6.23;;
1999;SDS011;1001;48.87406500;9.59633600;2023-05-10T04:35:31;7.90;;;6.73;;
1999;SDS011;1001;48.87406500;9.59633600;2023-05-10T04:37:59;6.70;;;6.00;;
1999;SDS011;1001;48.87406500;9.59633600;2023-05-10T04:40:26;8.87;;;6.43;;
1999;SDS011;1001;48.87406500;9.59633600;2023-05-10T04:42:53;6.63;;;5.97;;
1999;SDS011;1001;48.87406500;9.59633600;2023-05-10T04:45:19;6.57;;;5.87;;
1999;SDS011;1001;48.87406500;9.59633600;2023-05-10T04:47:46;5.57;;;5.00;;
1999;SDS011;1001;48.87406500;9.59633600;2023-05-10T04:50:12;6.23;;;5.17;;
1999;SDS011;1001;48.87406500;9.59633600;2023-05-10T04:52:38;6.63;;;5.90;;
1999;SDS011;1001;48.87406500;9.59633600;2023-05-10T04:55:05;7.20;;;5.83;;
1999;SDS011;1001;48.87406500;9.59633600;2023-05-10T04:57:35;6.50;;;5.90;;
1999;SDS011;1001;48.87406500;9.59633600;2023-05-10T05:00:02;6.23;;;5.30;;
1999;SDS011;1001;48.87406500;9.59633600;2023-05-10T05:02:28;6.00;;;5.17;;
1999;SDS011;1001;48.87406500;9.59633600;2023-05-10T05:04:55;6.77;;;5.30;;
1999;SDS011;1001;48.87406500;9.59633600;2023-05-10T05:07:22;5.23;;;4.60;;
1999;SDS011;1001;48.87406500;9.59633600;2023-05-10T05:09:49;6.83;;;5.70;;
1999;SDS011;1001;48.87406500;9.59633600;2023-05-10T05:12:15;5.83;;;5.30;;
1999;SDS011;1001;48.87406500;9.59633600;2023-05-10T05:14:43;6.47;;;5.57;;
1999;SDS011;1001;48.87406500;9.59633600;2023-05-10T05:17:09;12.40;;;6.10;;
1999;SDS011;1001;48.87406500;9.59633600;2023-05-10T05:19:35;38.47;;;9.00;;
1999;SDS011;1001;48.87406500;9.59633600;2023-05-10T05:22:02;70.33;;;11.83;;
1999;SDS011;1001;48.87406500;9.59633600;2023-05-10T05:24:28;8.80;;;5.90;;
1999;SDS011;1001;48.87406500;9.59633600;2023-05-10T05:26:55;36.13;;;8.17;;
1999;SDS011;1001;48.87406500;9.59633600;2023-05-10T05:29:21;10.90;;;6.83;;
1999;SDS011;1001;48.87406500;9.59633600;2023-05-10T05:31:49;5.47;;;4.73;;
1999;SDS011;1001;48.87406500;9.59633600;2023-05-10T05:34:15;5.40;;;4.90;;
1999;SDS011;1001;48.87406500;9.59633600;2023-05-10T05:36:41;4.50;;;4.07;;
1999;SDS011;1001;48.87406500;9.59633600;2023-05-10T05:39:08;7.50;;;5.07;;
1999;SDS011;1001;48.87406500;9.59633600;2023-05-10T05:41:34;5.70;;;5.20;;
1999;SDS011;1001;48.87406500;9.59633600;2023-05-10T05:44:01;5.97;;;4.67;;
1999;SDS011;1001;48.87406500;9.59633600;2023-05-10T05:46:27;5.23;;;4.67;;
1999;SDS011;1001;48.87406500;9.59633600;2023-05-10T05:48:55;6.10;;;4.20;;
1999;SDS011;1001;48.87406500;9.59633600;2023-05-10T05:51:21;7.00;;;4.63;;
1999;SDS011;1001;48.87406500;9.59633600;2023-05-10T05:53:48;4.33;;;3.70;;
1999;SDS011;1001;48.87406500;9.59633600;2023-05-10T05:56:14;6.10;;;5.50;;
1999;SDS011;1001;48.87406500;9.59633600;2023-05-10T05:58:40;5.77;;;5.17;;
1999;SDS011;1001;48.87406500;9.59633600;2023-05-10T06:01:07;8.30;;;5.37;;
1999;SDS011;1001;48.87406500;9.59633600;2023-05-10T06:03:34;6.03;;;5.20;;
1999;SDS011;1001;48.87406500;9.59633600;2023-05-10T06:06:01;6.50;;;5.37;;
1999;SDS011;1001;48.87406500;9.59633600;2023-05-10T06:08:28;5.73;;;5.10;;
1999;SDS011;1001;48.87406500;9.59633600;2023-05-10T06:10:54;6.67;;;5.03;;
1999;SDS011;1001;48.87406500;9.59633600;2023-05-10T06:13:21;7.30;;;5.53;;
1999;SDS011;1001;48.87406500;9.59633600;2023-05-10T06:15:47;8.20;;;6.30;;
1999;SDS011;1001;48.87406500;9.59633600;2023-05-10T06:18:13;6.37;;;5.67;;
1999;SDS011;1001;48.87406500;9.59633600;2023-05-10T06:20:40;7.57;;;6.27;;
1999;SDS011;1001;48.87406500;9.59633600;2023-05-10T06:23:08;6.70;;;5.83;;
1999;SDS011;1001;48.87406500;9.59633600;2023-05-10T06:25:35;10.00;;;7.27;;
1999;SDS011;1001;48.87406500;9.59633600;2023-05-10T06:28:01;8.33;;;6.37;;
1999;SDS011;1001;48.87406500;9.59633600;2023-05-10T06:30:28;6.43;;;5.77;;
1999;SDS011;1001;48.87406500;9.59633600;2023-05-10T06:32:54;8.13;;;7.03;;
1999;SDS011;1001;48.87406500;9.59633600;2023-05-10T06:35:21;5.90;;;5.30;;
1999;SDS011;1001;48.87406500;9.59633600;2023-05-10T06:37:47;7.47;;;6.53;;
1999;SDS011;1001;48.87406500;9.59633600;2023-05-10T06:40:15;9.30;;;6.40;;
1999;SDS011;1001;48.87406500;9.59633600;2023-05-10T06:42:42;8.13;;;6.30;;
1999;SDS011;1001;48.87406500;9.59633600;2023-05-10T06:45:10;7.87;;;6.80;;
1999;SDS011;1001;48.87406500;9.59633600;2023-05-10T06:47:36;7.47;;;6.73;;
1999;SDS011;1001;48.87406500;9.59633600;2023-05-10T06:50:02;6.83;;;6.03;;
1999;SDS011;1001;48.87406500;9.59633600;2023-05-10T06:52:29;6.83;;;6.07;;
1999;SDS011;1001;48.87406500;9.59633600;2023-05-10T06:54:55;7.30;;;6.57;;
1999;SDS011;1001;48.87406500;9.59633600;2023-05-10T06:57:23;6.70;;;5.60;;
1999;SDS011;1001;48.87406500;9.59633600;2023-05-10T06:59:50;6.67;;;5.60;;
1999;SDS011;1001;48.87406500;9.59633600;2023-05-10T07:02:17;9.57;;;5.47;;
1999;SDS011;1001;48.87406500;9.59633600;2023-05-10T07:04:43;7.80;;;5.60;;
1999;SDS011;1001;48.87406500;9.59633600;2023-05-10T07:07:09;6.60;;;5.90;;
1999;SDS011;1001;48.87406500;9.59633600;2023-05-10T07:09:36;8.60;;;5.33;;
1999;SDS011;1001;48.87406500;9.59633600;2023-05-10T07:12:02;8.47;;;6.00;;
1999;SDS011;1001;48.87406500;9.59633600;2023-05-10T07:14:30;9.53;;;5.40;;
1999;SDS011;1001;48.87406500;9.59633600;2023-05-10T07:16:57;5.53;;;4.90;;
1999;SDS011;1001;48.87406500;9.59633600;2023-05-10T07:19:23;6.87;;;5.33;;
1999;SDS011;1001;48.87406500;9.59633600;2023-05-10T07:21:49;6.70;;;4.77;;
1999;SDS011;1001;48.87406500;9.59633600;2023-05-10T07:24:16;5.50;;;4.93;;
1999;SDS011;1001;48.87406500;9.59633600;2023-05-10T07:26:42;5.50;;;4.63;;
1999;SDS011;1001;48.87406500;9.59633600;2023-05-10T07:29:09;7.10;;;5.30;;
1999;SDS011;1001;48.87406500;9.59633600;2023-05-10T07:31:37;5.53;;;4.87;;
1999;SDS011;1001;48.87406500;9.59633600;2023-05-10T07:34:03;5.83;;;4.83;;
1999;SDS011;1001;48.87406500;9.59633600;2023-05-10T07:36:30;7.47;;;4.90;;
1999;SDS011;1001;48.87406500;9.59633600;2023-05-10T07:38:56;5.10;;;4.60;;
1999;SDS011;1001;48.87406500;9.59633600;2023-05-10T07:41:22;5.83;;;5.00;;
1999;SDS011;1001;48.87406500;9.59633600;2023-05-10T07:43:49;5.70;;;4.70;;
1999;SDS011;1001;48.87406500;9.59633600;2023-05-10T07:46:15;5.13;;;3.97;;
1999;SDS011;1001;48.87406500;9.59633600;2023-05-10T07:48:43;3.40;;;3.10;;
1999;SDS011;1001;48.87406500;9.59633600;2023-05-10T07:51:09;3.83;;;3.40;;
1999;SDS011;1001;48.87406500;9.59633600;2023-05-10T07:53:35;3.50;;;3.13;;
1999;SDS011;1001;48.87406500;9.59633600;2023-05-10T07:58:45;4.03;;;3.10;;
1999;SDS011;1001;48.87406500;9.59633600;2023-05-10T08:01:11;3.13;;;2.40;;
1999;SDS011;1001;48.87406500;9.59633600;2023-05-10T08:03:38;5.97;;;3.13;;
1999;SDS011;1001;48.87406500;9.59633600;2023-05-10T08:06:06;3.70;;;3.30;;
1999;SDS011;1001;48.87406500;9.59633600;2023-05-10T08:08:32;5.77;;;2.43;;
1999;SDS011;1001;48.87406500;9.59633600;2023-05-10T08:10:58;3.43;;;2.97;;
1999;SDS011;1001;48.87406500;9.59633600;2023-05-10T08:13:25;3.97;;;2.40;;
1999;SDS011;1001;48.87406500;9.59633600;2023-05-10T08:15:51;2.77;;;2.53;;
1999;SDS011;1001;48.87406500;9.59633600;2023-05-10T08:18:18;3.40;;;2.97;;
1999;SDS011;1001;48.87406500;9.59633600;2023-05-10T08:20:44;5.97;;;2.60;;
1999;SDS011;1001;48.87406500;9.59633600;2023-05-10T08:23:13;2.80;;;2.60;;
1999;SDS011;1001;48.87406500;9.59633600;2023-05-10T08:25:39;2.83;;;2.40;;
1999;SDS011;1001;48.87406500;9.59633600;2023-05-10T08:28:05;2.80;;;2.37;;
1999;SDS011;1001;48.87406500;9.59633600;2023-05-10T08:30:32;2.93;;;2.37;;
1999;SDS011;1001;48.87406500;9.59633600;2023-05-10T08:32:58;3.17;;;2.70;;
1999;SDS011;1001;48.87406500;9.59633600;2023-05-10T08:35:24;2.77;;;2.50;;
1999;SDS011;1001;48.87406500;9.59633600;2023-05-10T08:37:51;2.70;;;2.50;;
1999;SDS011;1001;48.87406500;9.59633600;2023-05-10T08:40:19;2.87;;;1.70;;
1999;SDS011;1001;48.87406500;9.59633600;2023-05-10T08:42:47;2.70;;;1.40;;
1999;SDS011;1001;48.87406500;9.59633600;2023-05-10T08:45:15;1.53;;;1.40;;
1999;SDS011;1001;48.87406500;9.59633600;2023-05-10T08:47:41;1.80;;;1.43;;
1999;SDS011;1001;48.87406500;9.59633600;2023-05-10T08:50:08;3.07;;;1.83;;
1999;SDS011;1001;48.87406500;9.59633600;2023-05-10T08:52:36;1.90;;;1.37;;
1999;SDS011;1001;48.87406500;9.59633600;2023-05-10T08:55:04;2.90;;;1.63;;
1999;SDS011;1001;48.87406500;9.59633600;2023-05-10T08:57:32;1.60;;;0.97;;
1999;SDS011;1001;48.87406500;9.59633600;2023-05-10T08:59:59;3.53;;;1.30;;
1999;SDS011;1001;48.87406500;9.59633600;2023-05-10T09:02:26;3.63;;;1.80;;
1999;SDS011;1001;48.87406500;9.59633600;2023-05-10T09:04:53;1.83;;;1.57;;
1999;SDS011;1001;48.87406500;9.59633600;2023-05-10T09:07:19;1.53;;;1.10;;
1999;SDS011;1001;48.87406500;9.59633600;2023-05-10T09:09:46;1.90;;;1.37;;
1999;SDS011;1001;48.87406500;9.59633600;2023-05-10T09:12:12;1.73;;;1.47;;
1999;SDS011;1001;48.87406500;9.59633600;2023-05-10T09:14:42;1.77;;;1.50;;
1999;SDS011;1001;48.87406500;9.59633600;2023-05-10T09:17:08;2.50;;;1.67;;
1999;SDS011;1001;48.87406500;9.59633600;2023-05-10T09:19:35;1.50;;;1.40;;
1999;SDS011;1001;48.87406500;9.59633600;2023-05-10T09:22:02;2.67;;;1.40;;
1999;SDS011;1001;48.87406500;9.59633600;2023-05-10T09:24:29;1.40;;;1.30;;
1999;SDS011;1001;48.87406500;9.59633600;2023-05-10T09:26:56;2.00;;;1.77;;
1999;SDS011;1001;48.87406500;9.59633600;2023-05-10T09:29:22;1.30;;;1.20;;
1999;SDS011;1001;48.87406500;9.59633600;2023-05-10T09:31:50;1.93;;;1.30;;
1999;SDS011;1001;48.87406500;9.59633600;2023-05-10T09:34:19;1.70;;;1.00;;
1999;SDS011;1001;48.87406500;9.59633600;2023-05-10T09:36:52;4.33;;;1.30;;
1999;SDS011;1001;48.87406500;9.59633600;2023-05-10T09:39:19;2.13;;;1.00;;
1999;SDS011;1001;48.87406500;9.59633600;2023-05-10T09:41:45;1.40;;;0.80;;
1999;SDS011;1001;48.87406500;9.59633600;2023-05-10T09:44:14;2.03;;;1.00;;
1999;SDS011;1001;48.87406500;9.59633600;2023-05-10T09:46:42;1.47;;;0.90;;
1999;SDS011;1001;48.87406500;9.59633600;2023-05-10T09:49:11;2.53;;;1.10;;
1999;SDS011;1001;48.87406500;9.59633600;2023-05-10T09:51:40;1.30;;;0.80;;
1999;SDS011;1001;48.87406500;9.59633600;2023-05-10T09:54:10;1.37;;;0.80;;
1999;SDS011;1001;48.87406500;9.59633600;2023-05-10T09:56:36;1.37;;;0.97;;
1999;SDS011;1001;48.87406500;9.59633600;2023-05-10T09:59:05;1.20;;;0.90;;
1999;SDS011;1001;48.87406500;9.59633600;2023-05-10T10:01:32;2.07;;;0.87;;
1999;SDS011;1001;48.87406500;9.59633600;2023-05-10T10:03:58;1.00;;;0.90;;
1999;SDS011;1001;48.87406500;9.59633600;2023-05-10T10:06:26;1.20;;;0.87;;
1999;SDS011;1001;48.87406500;9.59633600;2023-05-10T10:08:53;1.20;;;0.80;;
1999;SDS011;1001;48.87406500;9.59633600;2023-05-10T10:11:21;1.77;;;0.70;;
1999;SDS011;1001;48.87406500;9.59633600;2023-05-10T10:13:49;4.40;;;0.90;;
1999;SDS011;1001;48.87406500;9.59633600;2023-05-10T10:16:15;3.07;;;0.60;;
1999;SDS011;1001;48.87406500;9.59633600;2023-05-10T10:18:41;2.27;;;0.73;;
1999;SDS011;1001;48.87406500;9.59633600;2023-05-10T10:21:08;1.00;;;0.70;;
1999;SDS011;1001;48.87406500;9.59633600;2023-05-10T10:23:36;1.93;;;0.60;;
1999;SDS011;1001;48.87406500;9.59633600;2023-05-10T10:26:02;4.00;;;0.80;;
1999;SDS011;1001;48.87406500;9.59633600;2023-05-10T10:28:32;1.90;;;0.60;;
1999;SDS011;1001;48.87406500;9.59633600;2023-05-10T10:31:00;0.80;;;0.53;;
1999;SDS011;1001;48.87406500;9.59633600;2023-05-10T10:33:30;1.23;;;0.80;;
1999;SDS011;1001;48.87406500;9.59633600;2023-05-10T10:36:00;0.97;;;0.60;;
1999;SDS011;1001;48.87406500;9.59633600;2023-05-10T10:38:37;3.27;;;0.80;;
1999;SDS011;1001;48.87406500;9.59633600;2023-05-10T10:41:09;3.70;;;0.60;;
1999;SDS011;1001;48.87406500;9.59633600;2023-05-10T10:43:35;1.23;;;0.60;;
1999;SDS011;1001;48.87406500;9.59633600;2023-05-10T10:46:14;2.83;;;0.60;;
1999;SDS011;1001;48.87406500;9.59633600;2023-05-10T10:48:43;1.10;;;0.70;;
1999;SDS011;1001;48.87406500;9.59633600;2023-05-10T10:51:13;0.90;;;0.60;;
1999;SDS011;1001;48.87406500;9.59633600;2023-05-10T10:53:41;1.87;;;0.83;;
1999;SDS011;1001;48.87406500;9.59633600;2023-05-10T10:56:07;1.70;;;0.93;;
1999;SDS011;1001;48.87406500;9.59633600;2023-05-10T10:58:34;2.20;;;0.83;;
1999;SDS011;1001;48.87406500;9.59633600;2023-05-10T11:01:11;3.10;;;0.80;;
1999;SDS011;1001;48.87406500;9.59633600;2023-05-10T11:03:38;1.67;;;1.03;;
1999;SDS011;1001;48.87406500;9.59633600;2023-05-10T11:06:04;3.43;;;1.00;;
1999;SDS011;1001;48.87406500;9.59633600;2023-05-10T11:08:31;1.67;;;0.80;;
1999;SDS011;1001;48.87406500;9.59633600;2023-05-10T11:11:06;1.20;;;1.00;;
1999;SDS011;1001;48.87406500;9.59633600;2023-05-10T11:13:39;1.60;;;0.97;;
1999;SDS011;1001;48.87406500;9.59633600;2023-05-10T11:16:13;1.23;;;0.77;;
1999;SDS011;1001;48.87406500;9.59633600;2023-05-10T11:18:39;1.27;;;0.70;;
1999;SDS011;1001;48.87406500;9.59633600;2023-05-10T11:21:08;2.73;;;1.03;;
1999;SDS011;1001;48.87406500;9.59633600;2023-05-10T11:23:47;2.00;;;0.90;;
1999;SDS011;1001;48.87406500;9.59633600;2023-05-10T11:26:15;1.10;;;0.80;;
1999;SDS011;1001;48.87406500;9.59633600;2023-05-10T11:28:41;2.40;;;0.90;;
1999;SDS011;1001;48.87406500;9.59633600;2023-05-10T11:31:08;1.63;;;0.97;;
1999;SDS011;1001;48.87406500;9.59633600;2023-05-10T11:33:41;1.50;;;0.93;;
1999;SDS011;1001;48.87406500;9.59633600;2023-05-10T11:36:10;1.77;;;0.77;;
1999;SDS011;1001;48.87406500;9.59633600;2023-05-10T11:38:37;1.23;;;0.90;;
1999;SDS011;1001;48.87406500;9.59633600;2023-05-10T11:41:03;1.50;;;1.00;;
1999;SDS011;1001;48.87406500;9.59633600;2023-05-10T11:43:31;2.10;;;0.87;;
1999;SDS011;1001;48.87406500;9.59633600;2023-05-10T11:45:57;1.27;;;1.07;;
1999;SDS011;1001;48.87406500;9.59633600;2023-05-10T11:48:24;1.37;;;0.80;;
1999;SDS011;1001;48.87406500;9.59633600;2023-05-10T11:50:50;2.30;;;1.30;;
1999;SDS011;1001;48.87406500;9.59633600;2023-05-10T11:53:17;0.80;;;0.80;;
1999;SDS011;1001;48.87406500;9.59633600;2023-05-10T11:55:45;1.23;;;0.90;;
1999;SDS011;1001;48.87406500;9.59633600;2023-05-10T11:58:12;1.73;;;1.17;;
1999;SDS011;1001;48.87406500;9.59633600;2023-05-10T12:00:40;1.57;;;0.80;;
1999;SDS011;1001;48.87406500;9.59633600;2023-05-10T12:03:06;1.67;;;0.80;;
1999;SDS011;1001;48.87406500;9.59633600;2023-05-10T12:05:32;1.20;;;0.57;;
1999;SDS011;1001;48.87406500;9.59633600;2023-05-10T12:08:11;2.20;;;0.70;;
1999;SDS011;1001;48.87406500;9.59633600;2023-05-10T12:10:38;0.83;;;0.63;;
1999;SDS011;1001;48.87406500;9.59633600;2023-05-10T12:13:04;5.60;;;0.90;;
1999;SDS011;1001;48.87406500;9.59633600;2023-05-10T12:15:32;0.80;;;0.60;;
1999;SDS011;1001;48.87406500;9.59633600;2023-05-10T12:17:59;1.00;;;0.57;;
1999;SDS011;1001;48.87406500;9.59633600;2023-05-10T12:20:27;2.80;;;0.87;;
1999;SDS011;1001;48.87406500;9.59633600;2023-05-10T12:22:54;4.00;;;1.20;;
1999;SDS011;1001;48.87406500;9.59633600;2023-05-10T12:25:21;1.00;;;0.80;;
1999;SDS011;1001;48.87406500;9.59633600;2023-05-10T12:27:51;3.43;;;1.07;;
1999;SDS011;1001;48.87406500;9.59633600;2023-05-10T12:30:21;2.67;;;1.30;;
1999;SDS011;1001;48.87406500;9.59633600;2023-05-10T12:32:47;2.50;;;1.53;;
1999;SDS011;1001;48.87406500;9.59633600;2023-05-10T12:35:15;2.50;;;0.70;;
1999;SDS011;1001;48.87406500;9.59633600;2023-05-10T12:37:42;1.30;;;1.20;;
1999;SDS011;1001;48.87406500;9.59633600;2023-05-10T12:40:08;1.10;;;0.80;;
1999;SDS011;1001;48.87406500;9.59633600;2023-05-10T12:42:35;1.60;;;1.10;;
1999;SDS011;1001;48.87406500;9.59633600;2023-05-10T12:45:02;1.90;;;1.03;;
1999;SDS011;1001;48.87406500;9.59633600;2023-05-10T12:47:29;2.90;;;0.70;;
1999;SDS011;1001;48.87406500;9.59633600;2023-05-10T12:49:55;1.20;;;1.10;;
1999;SDS011;1001;48.87406500;9.59633600;2023-05-10T12:52:23;1.77;;;1.10;;
1999;SDS011;1001;48.87406500;9.59633600;2023-05-10T12:54:51;2.43;;;1.40;;
1999;SDS011;1001;48.87406500;9.59633600;2023-05-10T12:57:17;2.23;;;1.20;;
1999;SDS011;1001;48.87406500;9.59633600;2023-05-10T12:59:44;1.80;;;0.97;;
1999;SDS011;1001;48.87406500;9.59633600;2023-05-10T13:02:10;3.03;;;1.33;;
1999;SDS011;1001;48.87406500;9.59633600;2023-05-10T13:04:36;2.30;;;1.10;;
1999;SDS011;1001;48.87406500;9.59633600;2023-05-10T13:07:04;1.83;;;1.27;;
1999;SDS011;1001;48.87406500;9.59633600;2023-05-10T13:09:32;2.47;;;1.47;;
1999;SDS011;1001;48.87406500;9.59633600;2023-05-10T13:11:58;5.63;;;1.20;;
1999;SDS011;1001;48.87406500;9.59633600;2023-05-10T13:14:25;2.17;;;1.10;;
1999;SDS011;1001;48.87406500;9.59633600;2023-05-10T13:16:52;3.30;;;1.27;;
1999;SDS011;1001;48.87406500;9.59633600;2023-05-10T13:19:18;6.00;;;1.47;;
1999;SDS011;1001;48.87406500;9.59633600;2023-05-10T13:21:45;3.13;;;1.30;;